ADDS METAR Data INFO
IDs: Format: Raw Decoded Include TAF

Data at: 0012 UTC 25 Nov 2017

KJCT 242351Z AUTO 20008KT 10SM CLR 22/02 A2984 RMK AO2 SLP084 T02170022 10261 20217 55005
KJCT 242251Z AUTO 19012KT 10SM CLR 24/02 A2984 RMK AO2 SLP082 T02390022
KJCT 242151Z AUTO 21010G18KT 10SM CLR 26/01 A2984 RMK AO2 SLP080 T02560006
KJCT 242051Z AUTO 20012G18KT 10SM CLR 26/01 A2986 RMK AO2 SLP087 T02610006 56029
KJCT 241951Z AUTO 21009KT 10SM CLR 26/01 A2988 RMK AO2 SLP096 T02560006
KJCT 241851Z AUTO 19011G16KT 10SM CLR 24/01 A2991 RMK AO2 SLP104 T02390006
KJCT 241751Z AUTO 21010KT 10SM CLR 23/01 A2995 RMK AO2 SLP118 T02280011 10228 20006 58019
KJCT 241651Z AUTO 22006KT 10SM CLR 20/02 A2998 RMK AO2 SLP130 T02000022
KJCT 241551Z AUTO 00000KT 10SM CLR 14/02 A3000 RMK AO2 SLP142 T01390017
KJCT 241451Z AUTO 00000KT 7SM CLR 08/01 A3001 RMK AO2 SLP147 T00780006 50002
KJCT 241351Z AUTO 27003KT 10SM CLR 02/M02 A3002 RMK AO2 SLP154 T00221017
KJCT 241251Z AUTO 27003KT 10SM CLR 01/M02 A3002 RMK AO2 SLP150 T00111022
KJCT 241151Z AUTO 29005KT 10SM CLR 01/M02 A3000 RMK AO2 SLP142 T00111022 10050 20011 55009
KJCT 241051Z AUTO 28004KT 10SM CLR 02/M02 A3000 RMK AO2 SLP139 T00171022
KJCT 240951Z AUTO 27003KT 10SM CLR 02/M02 A3001 RMK AO2 SLP143 T00221022
KJCT 240851Z AUTO 00000KT 10SM CLR 02/M02 A3003 RMK AO2 SLP149 T00221017 58015
KJCT 240751Z AUTO 00000KT 10SM CLR 03/M02 A3005 RMK AO2 SLP156 T00331017
KJCT 240651Z AUTO 29004KT 10SM CLR 04/M02 A3007 RMK AO2 SLP161 T00391017
KJCT 240551Z AUTO 00000KT 10SM CLR 05/M01 A3008 RMK AO2 SLP166 T00501011 10178 20050 402331028 58001
KJCT 240451Z AUTO 28003KT 10SM CLR 06/M01 A3009 RMK AO2 SLP173 T00561011
KJCT 240351Z AUTO 28003KT 10SM CLR 07/M01 A3008 RMK AO2 SLP172 T00721006
KJCT 240251Z AUTO 00000KT 10SM CLR 08/M01 A3008 RMK AO2 SLP176 T00831006 51010
KJCT 240151Z AUTO 30004KT 10SM CLR 09/M01 A3008 RMK AO2 SLP176 T00941011
KJCT 240051Z AUTO 00000KT 10SM CLR 13/M01 A3007 RMK AO2 SLP169 T01331011
KJCT 232351Z AUTO 00000KT 10SM CLR 18/M02 A3005 RMK AO2 SLP162 T01831017 10233 20178 56004
KJCT 232251Z AUTO 24004KT 10SM CLR 22/M03 A3006 RMK AO2 SLP161 T02171028
KJCT 232151Z AUTO VRB03KT 10SM CLR 23/M03 A3006 RMK AO2 PK WND 22028/2100 SLP160 T02281028
KJCT 232051Z AUTO 22005KT 10SM CLR 22/M03 A3007 RMK AO2 SLP164 T02171033 56034
KJCT 231951Z AUTO 27007KT 10SM CLR 22/M03 A3009 RMK AO2 SLP173 T02171033
KJCT 231851Z AUTO VRB05KT 10SM CLR 21/M03 A3013 RMK AO2 SLP184 T02061033
KJCT 231751Z AUTO VRB04KT 10SM CLR 18/M03 A3017 RMK AO2 SLP201 T01781028 10178 21028 58019
KJCT 231651Z AUTO 00000KT 10SM CLR 14/M03 A3021 RMK AO2 SLP215 T01391033
KJCT 231551Z AUTO 00000KT 10SM CLR 08/M03 A3022 RMK AO2 SLP222 T00831033
KJCT 231451Z AUTO 00000KT 10SM CLR 02/M04 A3023 RMK AO2 SLP228 T00221044 51007
KJCT 231351Z AUTO 29003KT 10SM CLR M01/M06 A3023 RMK AO2 SLP227 T10111056
KJCT 231251Z AUTO 00000KT 10SM CLR M03/M06 A3022 RMK AO2 SLP224 T10281061